sensor_id;sensor_type;location;lat;lon;timestamp;temperature;humidity
20139;DHT22;10230;51.502;10.800;2023-02-19T17:16:20;6.80;99.90
20139;DHT22;10230;51.502;10.800;2023-02-19T17:28:42;6.00;99.90
20139;DHT22;10230;51.502;10.800;2023-02-19T17:31:09;5.90;99.90
20139;DHT22;10230;51.502;10.800;2023-02-19T17:33:35;5.80;99.90
20139;DHT22;10230;51.502;10.800;2023-02-19T17:38:27;5.80;99.90
20139;DHT22;10230;51.502;10.800;2023-02-19T17:40:53;5.80;99.90
20139;DHT22;10230;51.502;10.800;2023-02-19T17:43:19;5.80;99.90
20139;DHT22;10230;51.502;10.800;2023-02-19T17:45:44;5.90;99.90
20139;DHT22;10230;51.502;10.800;2023-02-19T17:48:13;5.90;99.90
20139;DHT22;10230;51.502;10.800;2023-02-19T17:50:39;5.90;99.90
20139;DHT22;10230;51.502;10.800;2023-02-19T17:53:05;6.00;99.90
20139;DHT22;10230;51.502;10.800;2023-02-19T17:55:31;6.00;99.90
20139;DHT22;10230;51.502;10.800;2023-02-19T17:57:58;6.00;99.90
20139;DHT22;10230;51.502;10.800;2023-02-19T18:00:28;6.10;99.90
20139;DHT22;10230;51.502;10.800;2023-02-19T18:02:54;6.20;99.90
20139;DHT22;10230;51.502;10.800;2023-02-19T18:05:20;6.30;99.90
20139;DHT22;10230;51.502;10.800;2023-02-19T18:07:47;6.30;99.90
20139;DHT22;10230;51.502;10.800;2023-02-19T18:10:14;6.40;99.90
20139;DHT22;10230;51.502;10.800;2023-02-19T18:12:40;6.50;99.90
20139;DHT22;10230;51.502;10.800;2023-02-19T18:15:07;6.50;99.90
20139;DHT22;10230;51.502;10.800;2023-02-19T18:17:33;6.60;99.90
20139;DHT22;10230;51.502;10.800;2023-02-19T18:19:59;6.60;99.90
20139;DHT22;10230;51.502;10.800;2023-02-19T18:22:25;6.70;99.90
20139;DHT22;10230;51.502;10.800;2023-02-19T18:24:52;6.70;99.90
20139;DHT22;10230;51.502;10.800;2023-02-19T18:27:18;6.80;99.90
20139;DHT22;10230;51.502;10.800;2023-02-19T18:29:49;6.80;99.90
20139;DHT22;10230;51.502;10.800;2023-02-19T18:32:15;6.80;99.90
20139;DHT22;10230;51.502;10.800;2023-02-19T18:34:40;6.90;99.90
20139;DHT22;10230;51.502;10.800;2023-02-19T18:37:06;6.90;99.90
20139;DHT22;10230;51.502;10.800;2023-02-19T18:39:32;7.00;99.90
20139;DHT22;10230;51.502;10.800;2023-02-19T18:41:58;7.00;99.90
20139;DHT22;10230;51.502;10.800;2023-02-19T18:44:25;7.10;99.90
20139;DHT22;10230;51.502;10.800;2023-02-19T18:46:50;7.10;99.90
20139;DHT22;10230;51.502;10.800;2023-02-19T18:49:17;7.20;99.90
20139;DHT22;10230;51.502;10.800;2023-02-19T18:51:42;7.20;99.90
20139;DHT22;10230;51.502;10.800;2023-02-19T18:54:09;7.20;99.90
20139;DHT22;10230;51.502;10.800;2023-02-19T18:56:42;7.30;99.90
20139;DHT22;10230;51.502;10.800;2023-02-19T18:59:08;7.30;99.90
20139;DHT22;10230;51.502;10.800;2023-02-19T19:01:33;7.30;99.90
20139;DHT22;10230;51.502;10.800;2023-02-19T19:03:59;7.30;99.90
20139;DHT22;10230;51.502;10.800;2023-02-19T19:06:25;7.30;99.90
20139;DHT22;10230;51.502;10.800;2023-02-19T19:08:50;7.30;99.90
20139;DHT22;10230;51.502;10.800;2023-02-19T19:11:16;7.40;99.90
20139;DHT22;10230;51.502;10.800;2023-02-19T19:13:44;7.40;99.90
20139;DHT22;10230;51.502;10.800;2023-02-19T19:16:10;7.40;99.90
20139;DHT22;10230;51.502;10.800;2023-02-19T19:18:36;7.40;99.90
20139;DHT22;10230;51.502;10.800;2023-02-19T19:21:04;7.40;99.90
20139;DHT22;10230;51.502;10.800;2023-02-19T19:23:30;7.40;99.90
20139;DHT22;10230;51.502;10.800;2023-02-19T19:25:56;7.40;99.90
20139;DHT22;10230;51.502;10.800;2023-02-19T19:28:21;7.40;99.90
20139;DHT22;10230;51.502;10.800;2023-02-19T19:30:47;7.40;99.90
20139;DHT22;10230;51.502;10.800;2023-02-19T19:33:13;7.40;99.90
20139;DHT22;10230;51.502;10.800;2023-02-19T19:35:39;7.40;99.90
20139;DHT22;10230;51.502;10.800;2023-02-19T19:38:04;7.40;99.90
20139;DHT22;10230;51.502;10.800;2023-02-19T19:40:30;7.40;99.90
20139;DHT22;10230;51.502;10.800;2023-02-19T19:42:55;7.40;99.90
20139;DHT22;10230;51.502;10.800;2023-02-19T19:45:21;7.40;99.90
20139;DHT22;10230;51.502;10.800;2023-02-19T19:47:47;7.40;99.90
20139;DHT22;10230;51.502;10.800;2023-02-19T19:50:15;7.40;99.90
20139;DHT22;10230;51.502;10.800;2023-02-19T19:52:40;7.40;99.90
20139;DHT22;10230;51.502;10.800;2023-02-19T19:55:06;7.50;99.90
20139;DHT22;10230;51.502;10.800;2023-02-19T19:57:32;7.50;99.90
20139;DHT22;10230;51.502;10.800;2023-02-19T19:59:58;7.40;99.90
20139;DHT22;10230;51.502;10.800;2023-02-19T20:02:23;7.40;99.90
20139;DHT22;10230;51.502;10.800;2023-02-19T20:04:49;7.40;99.90
20139;DHT22;10230;51.502;10.800;2023-02-19T20:07:15;7.40;99.90
20139;DHT22;10230;51.502;10.800;2023-02-19T20:09:40;7.40;99.90
20139;DHT22;10230;51.502;10.800;2023-02-19T20:12:07;7.50;99.90
20139;DHT22;10230;51.502;10.800;2023-02-19T20:14:35;7.50;99.90
20139;DHT22;10230;51.502;10.800;2023-02-19T20:19:26;7.50;99.90
20139;DHT22;10230;51.502;10.800;2023-02-19T20:21:53;7.50;99.90
20139;DHT22;10230;51.502;10.800;2023-02-19T20:24:25;7.60;99.90
20139;DHT22;10230;51.502;10.800;2023-02-19T20:26:54;7.60;99.90
20139;DHT22;10230;51.502;10.800;2023-02-19T20:29:28;7.70;99.90
20139;DHT22;10230;51.502;10.800;2023-02-19T20:31:55;7.80;99.90
20139;DHT22;10230;51.502;10.800;2023-02-19T20:34:23;7.60;99.90
20139;DHT22;10230;51.502;10.800;2023-02-19T20:36:49;7.60;99.90
20139;DHT22;10230;51.502;10.800;2023-02-19T20:39:15;7.60;99.90
20139;DHT22;10230;51.502;10.800;2023-02-19T20:41:45;7.60;99.90
20139;DHT22;10230;51.502;10.800;2023-02-19T20:44:12;7.60;99.90
20139;DHT22;10230;51.502;10.800;2023-02-19T20:46:46;7.60;99.90
20139;DHT22;10230;51.502;10.800;2023-02-19T20:49:13;7.60;99.90
20139;DHT22;10230;51.502;10.800;2023-02-19T20:51:47;7.60;99.90
20139;DHT22;10230;51.502;10.800;2023-02-19T20:54:15;7.60;99.90
20139;DHT22;10230;51.502;10.800;2023-02-19T20:56:45;7.60;99.90
20139;DHT22;10230;51.502;10.800;2023-02-19T20:59:11;7.60;99.90
20139;DHT22;10230;51.502;10.800;2023-02-19T21:01:37;7.60;99.90
20139;DHT22;10230;51.502;10.800;2023-02-19T21:04:03;7.60;99.90
20139;DHT22;10230;51.502;10.800;2023-02-19T21:06:29;7.60;99.90
20139;DHT22;10230;51.502;10.800;2023-02-19T21:08:54;7.60;99.90
20139;DHT22;10230;51.502;10.800;2023-02-19T21:11:20;7.60;99.90
20139;DHT22;10230;51.502;10.800;2023-02-19T21:13:46;7.60;99.90
20139;DHT22;10230;51.502;10.800;2023-02-19T21:16:12;7.50;99.90
20139;DHT22;10230;51.502;10.800;2023-02-19T21:18:37;7.50;99.90
20139;DHT22;10230;51.502;10.800;2023-02-19T21:21:03;7.50;99.90
20139;DHT22;10230;51.502;10.800;2023-02-19T21:23:29;7.50;99.90
20139;DHT22;10230;51.502;10.800;2023-02-19T21:25:55;7.50;99.90
20139;DHT22;10230;51.502;10.800;2023-02-19T21:28:20;7.40;99.90
20139;DHT22;10230;51.502;10.800;2023-02-19T21:30:46;7.40;99.90
20139;DHT22;10230;51.502;10.800;2023-02-19T21:33:12;7.40;99.90
20139;DHT22;10230;51.502;10.800;2023-02-19T21:35:38;7.30;99.90
20139;DHT22;10230;51.502;10.800;2023-02-19T21:38:03;7.30;99.90
20139;DHT22;10230;51.502;10.800;2023-02-19T21:40:29;7.30;99.90
20139;DHT22;10230;51.502;10.800;2023-02-19T21:42:56;7.30;99.90
20139;DHT22;10230;51.502;10.800;2023-02-19T21:45:22;7.30;99.90
20139;DHT22;10230;51.502;10.800;2023-02-19T21:47:48;7.40;99.90
20139;DHT22;10230;51.502;10.800;2023-02-19T21:50:18;7.40;99.90
20139;DHT22;10230;51.502;10.800;2023-02-19T21:52:45;7.40;99.90
20139;DHT22;10230;51.502;10.800;2023-02-19T21:55:10;7.40;99.90
20139;DHT22;10230;51.502;10.800;2023-02-19T21:57:38;7.40;99.90
20139;DHT22;10230;51.502;10.800;2023-02-19T22:00:04;7.40;99.90
20139;DHT22;10230;51.502;10.800;2023-02-19T22:04:58;8.40;99.90
20139;DHT22;10230;51.502;10.800;2023-02-19T22:07:24;7.60;99.90
20139;DHT22;10230;51.502;10.800;2023-02-19T22:09:50;7.60;99.90
20139;DHT22;10230;51.502;10.800;2023-02-19T22:14:44;7.70;99.90
20139;DHT22;10230;51.502;10.800;2023-02-19T22:17:10;7.60;99.90
20139;DHT22;10230;51.502;10.800;2023-02-19T22:19:36;7.60;99.90
20139;DHT22;10230;51.502;10.800;2023-02-19T22:22:01;7.60;99.90
20139;DHT22;10230;51.502;10.800;2023-02-19T22:24:27;7.60;99.90
20139;DHT22;10230;51.502;10.800;2023-02-19T22:26:57;7.60;99.90
20139;DHT22;10230;51.502;10.800;2023-02-19T22:29:23;7.60;99.90
20139;DHT22;10230;51.502;10.800;2023-02-19T22:31:49;7.60;99.90
20139;DHT22;10230;51.502;10.800;2023-02-19T22:34:15;7.60;99.90
20139;DHT22;10230;51.502;10.800;2023-02-19T22:36:41;7.60;99.90
20139;DHT22;10230;51.502;10.800;2023-02-19T22:39:18;7.60;99.90
20139;DHT22;10230;51.502;10.800;2023-02-19T22:41:44;7.50;99.90
20139;DHT22;10230;51.502;10.800;2023-02-19T22:44:10;7.50;99.90
20139;DHT22;10230;51.502;10.800;2023-02-19T22:46:36;7.50;99.90
20139;DHT22;10230;51.502;10.800;2023-02-19T22:49:04;7.60;99.90
20139;DHT22;10230;51.502;10.800;2023-02-19T22:51:31;7.20;99.90
20139;DHT22;10230;51.502;10.800;2023-02-19T22:53:58;7.20;99.90
20139;DHT22;10230;51.502;10.800;2023-02-19T22:56:25;7.10;99.90
20139;DHT22;10230;51.502;10.800;2023-02-19T22:58:52;7.00;99.90
20139;DHT22;10230;51.502;10.800;2023-02-19T23:01:18;7.00;99.90
20139;DHT22;10230;51.502;10.800;2023-02-19T23:03:49;6.90;99.90
20139;DHT22;10230;51.502;10.800;2023-02-19T23:06:29;6.90;99.90
20139;DHT22;10230;51.502;10.800;2023-02-19T23:08:57;6.70;99.90
20139;DHT22;10230;51.502;10.800;2023-02-19T23:11:28;7.20;99.90
20139;DHT22;10230;51.502;10.800;2023-02-19T23:13:54;6.80;99.90
20139;DHT22;10230;51.502;10.800;2023-02-19T23:16:21;6.80;99.90
20139;DHT22;10230;51.502;10.800;2023-02-19T23:18:46;6.80;99.90
20139;DHT22;10230;51.502;10.800;2023-02-19T23:21:13;6.80;99.90
20139;DHT22;10230;51.502;10.800;2023-02-19T23:23:43;6.90;99.90
20139;DHT22;10230;51.502;10.800;2023-02-19T23:26:10;6.90;99.90
20139;DHT22;10230;51.502;10.800;2023-02-19T23:28:37;6.90;99.90
20139;DHT22;10230;51.502;10.800;2023-02-19T23:31:03;6.90;99.90
20139;DHT22;10230;51.502;10.800;2023-02-19T23:33:29;7.00;99.90
20139;DHT22;10230;51.502;10.800;2023-02-19T23:38:22;6.90;99.90
